Time;durP1;ratioP1;P1;durP2;ratioP2;P2;SDS_P1;SDS_P2;PMS_P1;PMS_P2;Temp;Humidity;BMP_temperature;BMP_pressure;BME280_temperature;BME280_humidity;BME280_pressure;Samples;Min_cycle;Max_cycle;Signal;HPM_P1;HPM_P2
2023/06/05 00:01:02;;;;;;;4.60;2.70;;;16.90;23.30;;;;;;5041682;28;20203;-80
2023/06/05 00:03:28;;;;;;;5.60;2.87;;;16.90;25.00;;;;;;5040807;28;20193;-81
2023/06/05 00:05:56;;;;;;;8.80;4.30;;;16.90;25.50;;;;;;5040270;28;20194;-81
2023/06/05 00:08:22;;;;;;;6.20;3.60;;;16.80;27.40;;;;;;5039800;28;20205;-81
2023/06/05 00:10:47;;;;;;;4.40;3.30;;;16.80;29.40;;;;;;5043063;28;20479;-81
2023/06/05 00:13:13;;;;;;;6.00;3.90;;;16.80;43.50;;;;;;5041996;28;20236;-80
2023/06/05 00:15:38;;;;;;;4.97;3.00;;;16.70;32.80;;;;;;5035411;28;20189;-81
2023/06/05 00:18:05;;;;;;;8.30;3.40;;;16.70;35.10;;;;;;5042337;28;20215;-81
2023/06/05 00:20:30;;;;;;;5.93;3.30;;;16.70;36.50;;;;;;5041259;28;20195;-80
2023/06/05 00:22:56;;;;;;;7.33;2.97;;;16.70;39.20;;;;;;5041246;28;20475;-82
2023/06/05 00:25:22;;;;;;;5.27;3.27;;;16.70;41.60;;;;;;5042052;28;20291;-80
2023/06/05 00:27:47;;;;;;;6.03;3.50;;;16.70;44.30;;;;;;5041644;28;20224;-80
2023/06/05 00:30:13;;;;;;;9.20;3.30;;;16.70;46.80;;;;;;5042617;28;20270;-80
2023/06/05 00:32:39;;;;;;;5.83;3.60;;;16.60;47.60;;;;;;5035478;28;20670;-82
2023/06/05 00:35:06;;;;;;;6.67;3.40;;;16.60;50.60;;;;;;5042141;28;20478;-81
2023/06/05 00:37:33;;;;;;;5.70;3.20;;;16.60;52.20;;;;;;5040078;28;20200;-79
2023/06/05 00:39:59;;;;;;;5.80;3.17;;;16.60;53.40;;;;;;5040136;28;20440;-80
2023/06/05 00:42:26;;;;;;;7.23;3.60;;;16.60;55.60;;;;;;5025891;28;20493;-80
2023/06/05 00:44:52;;;;;;;5.83;3.73;;;16.60;56.10;;;;;;5042176;28;20442;-81
2023/06/05 00:47:17;;;;;;;9.10;3.77;;;16.50;58.70;;;;;;5038093;28;20508;-81
2023/06/05 00:49:43;;;;;;;4.63;3.17;;;16.40;62.20;;;;;;5037958;28;20448;-80
2023/06/05 00:52:09;;;;;;;5.90;3.50;;;16.30;65.60;;;;;;5041528;28;20193;-80
2023/06/05 00:54:34;;;;;;;6.53;3.50;;;16.30;71.90;;;;;;5025390;28;20313;-82
2023/06/05 00:57:00;;;;;;;6.53;3.67;;;16.20;77.40;;;;;;5025079;28;20205;-82
2023/06/05 00:59:26;;;;;;;5.63;3.27;;;16.10;88.20;;;;;;5042949;28;20199;-80
2023/06/05 01:01:53;;;;;;;5.00;3.83;;;16.00;94.90;;;;;;5045160;28;20305;-82
2023/06/05 01:04:18;;;;;;;5.37;3.50;;;16.00;98.20;;;;;;5027921;28;20443;-81
2023/06/05 01:06:45;;;;;;;5.87;3.87;;;16.00;99.90;;;;;;5031468;28;20501;-80
2023/06/05 01:09:13;;;;;;;7.70;3.37;;;16.00;99.90;;;;;;5046500;28;20189;-82
2023/06/05 01:12:05;;;;;;;5.67;3.20;;;16.00;99.90;;;;;;5045352;28;20427;-80
2023/06/05 01:14:33;;;;;;;6.43;3.80;;;15.90;99.90;;;;;;5046138;28;20482;-80
2023/06/05 01:17:02;;;;;;;4.70;2.80;;;15.90;99.90;;;;;;5037840;28;20467;-81
2023/06/05 01:19:31;;;;;;;7.17;3.60;;;15.90;99.90;;;;;;5046781;28;20527;-81
2023/06/05 01:22:00;;;;;;;5.20;3.53;;;15.90;99.90;;;;;;5028699;28;20604;-80
2023/06/05 01:24:27;;;;;;;6.20;3.70;;;15.90;99.90;;;;;;5035367;28;20443;-81
2023/06/05 01:27:00;;;;;;;6.77;3.40;;;15.90;99.90;;;;;;5044134;28;20558;-78
2023/06/05 01:29:35;;;;;;;8.37;4.47;;;15.80;99.90;;;;;;5043730;28;20434;-81
2023/06/05 01:32:06;;;;;;;5.90;3.50;;;15.80;99.90;;;;;;5045303;28;20435;-81
2023/06/05 01:34:35;;;;;;;5.70;3.70;;;15.80;99.90;;;;;;5025169;28;20923;-81
2023/06/05 01:37:02;;;;;;;7.17;3.53;;;15.80;99.90;;;;;;5045664;28;20509;-81
2023/06/05 01:39:29;;;;;;;4.33;3.10;;;15.70;99.90;;;;;;5041466;28;20532;-78
2023/06/05 01:41:56;;;;;;;8.10;4.00;;;15.70;99.90;;;;;;5044669;28;21158;-81
2023/06/05 01:44:22;;;;;;;4.37;3.80;;;15.70;99.90;;;;;;5044906;28;20462;-80
2023/06/05 01:46:49;;;;;;;9.87;4.27;;;15.70;99.90;;;;;;5044189;28;20458;-80
2023/06/05 01:49:15;;;;;;;7.20;4.03;;;15.60;99.90;;;;;;5043792;28;20199;-81
2023/06/05 01:51:40;;;;;;;8.13;4.27;;;15.60;99.90;;;;;;5044864;28;20450;-80
2023/06/05 01:54:06;;;;;;;7.73;3.63;;;15.50;99.90;;;;;;5039230;28;20210;-82
2023/06/05 01:56:32;;;;;;;5.13;3.80;;;15.50;99.90;;;;;;5043260;28;20244;-81
2023/06/05 01:58:58;;;;;;;8.13;3.60;;;15.50;99.90;;;;;;5029214;28;20278;-81
2023/06/05 02:01:23;;;;;;;4.60;3.80;;;15.50;99.90;;;;;;5042462;28;20454;-79
2023/06/05 02:03:49;;;;;;;6.50;3.67;;;15.40;99.90;;;;;;5050940;28;20245;-81
2023/06/05 02:06:16;;;;;;;8.40;4.67;;;15.40;99.90;;;;;;5045191;28;20204;-80
2023/06/05 02:08:42;;;;;;;11.93;4.47;;;15.30;99.90;;;;;;5036178;28;20443;-81
2023/06/05 02:11:11;;;;;;;5.50;3.23;;;15.30;99.90;;;;;;5043438;28;20443;-79
2023/06/05 02:13:40;;;;;;;4.77;3.90;;;15.20;99.90;;;;;;5039707;28;20554;-81
2023/06/05 02:16:09;;;;;;;16.93;4.70;;;15.20;99.90;;;;;;5029338;28;20468;-81
2023/06/05 02:18:36;;;;;;;6.10;4.30;;;15.20;99.90;;;;;;5044212;28;21002;-82
2023/06/05 02:21:03;;;;;;;9.90;3.93;;;15.20;99.90;;;;;;5045363;28;20443;-80
2023/06/05 02:23:28;;;;;;;5.00;4.13;;;15.10;99.90;;;;;;5035633;28;20891;-81
2023/06/05 02:25:54;;;;;;;5.90;4.30;;;15.10;99.90;;;;;;5045315;28;20446;-80
2023/06/05 02:28:20;;;;;;;12.20;5.73;;;15.10;99.90;;;;;;5041756;28;20730;-80
2023/06/05 02:30:47;;;;;;;6.53;4.17;;;15.00;99.90;;;;;;5043403;28;20454;-80
2023/06/05 02:33:14;;;;;;;4.80;3.97;;;15.00;99.90;;;;;;5044473;28;20216;-81
2023/06/05 02:35:40;;;;;;;6.83;4.67;;;15.00;99.90;;;;;;5044617;28;20437;-81
2023/06/05 02:38:09;;;;;;;8.67;4.30;;;14.90;99.90;;;;;;5044100;28;20457;-81
2023/06/05 02:40:35;;;;;;;9.77;4.37;;;14.90;99.90;;;;;;5042797;28;20449;-79
2023/06/05 02:43:01;;;;;;;10.60;3.83;;;14.90;99.90;;;;;;5048473;28;20450;-78
2023/06/05 02:45:27;;;;;;;7.07;4.30;;;14.80;99.90;;;;;;5047532;28;20524;-81
2023/06/05 02:47:52;;;;;;;9.70;4.50;;;14.80;99.90;;;;;;5039777;28;20573;-81
2023/06/05 02:50:18;;;;;;;6.70;4.03;;;14.80;99.90;;;;;;5043213;28;20760;-80
2023/06/05 02:52:43;;;;;;;10.47;6.27;;;14.70;99.90;;;;;;5041793;28;20251;-79
2023/06/05 02:55:09;;;;;;;9.00;4.40;;;14.70;99.90;;;;;;5044644;28;20219;-80
2023/06/05 02:57:41;;;;;;;5.17;4.10;;;14.70;99.90;;;;;;5043555;28;20224;-81
2023/06/05 03:00:14;;;;;;;7.53;4.00;;;14.60;99.90;;;;;;5037332;28;20184;-79
2023/06/05 03:02:40;;;;;;;5.47;4.00;;;14.60;99.90;;;;;;5042966;28;20531;-80
2023/06/05 03:05:07;;;;;;;8.90;4.33;;;14.60;99.90;;;;;;5023971;28;20513;-80
2023/06/05 03:07:33;;;;;;;9.30;4.60;;;14.50;99.90;;;;;;5043668;28;20479;-79
2023/06/05 03:10:00;;;;;;;11.60;5.10;;;14.50;99.90;;;;;;5033711;28;20442;-80
2023/06/05 03:12:26;;;;;;;10.97;4.37;;;14.50;99.90;;;;;;5043749;28;20441;-78
2023/06/05 03:14:51;;;;;;;7.67;4.53;;;14.40;99.90;;;;;;5040921;28;20469;-79
2023/06/05 03:17:17;;;;;;;6.50;4.50;;;14.40;99.90;;;;;;5033107;28;20587;-78
2023/06/05 03:19:42;;;;;;;5.90;4.53;;;14.30;99.90;;;;;;5042520;28;20162;-80
2023/06/05 03:22:08;;;;;;;10.60;4.90;;;14.20;99.90;;;;;;5040019;28;20197;-80
2023/06/05 03:24:37;;;;;;;7.00;4.67;;;14.20;99.90;;;;;;5035978;28;20218;-79
2023/06/05 03:27:04;;;;;;;7.63;4.63;;;14.20;99.90;;;;;;5040563;28;20508;-80
2023/06/05 03:29:30;;;;;;;9.00;5.07;;;14.20;99.90;;;;;;5043237;28;20433;-80
2023/06/05 03:31:55;;;;;;;6.80;4.30;;;14.20;99.90;;;;;;5038842;28;20441;-80
2023/06/05 03:34:25;;;;;;;5.77;4.23;;;14.20;99.90;;;;;;5022848;28;20218;-80
2023/06/05 03:36:54;;;;;;;7.77;4.40;;;14.10;99.90;;;;;;5041822;28;20277;-81
2023/06/05 03:39:20;;;;;;;7.67;4.90;;;14.10;99.90;;;;;;5042956;28;20436;-79
2023/06/05 03:41:46;;;;;;;5.70;4.43;;;14.20;99.90;;;;;;5032001;28;20440;-80
2023/06/05 03:44:12;;;;;;;10.47;4.30;;;14.20;99.90;;;;;;5042080;28;20434;-80
2023/06/05 03:46:37;;;;;;;7.47;4.80;;;14.20;99.90;;;;;;5043197;28;20294;-80
2023/06/05 03:49:08;;;;;;;10.57;4.90;;;14.20;99.90;;;;;;5043063;28;20258;-79
2023/06/05 03:51:34;;;;;;;6.83;5.03;;;14.20;99.90;;;;;;5032270;28;20194;-82
2023/06/05 03:54:00;;;;;;;7.00;4.30;;;14.20;99.90;;;;;;5043457;28;20483;-82
2023/06/05 03:56:34;;;;;;;7.87;4.80;;;14.10;99.90;;;;;;5028930;28;20206;-82
2023/06/05 03:59:16;;;;;;;6.27;4.20;;;14.00;99.90;;;;;;5039259;28;20439;-81
2023/06/05 04:01:42;;;;;;;4.90;4.07;;;14.00;99.90;;;;;;5043601;28;20440;-81
2023/06/05 04:04:08;;;;;;;6.57;4.10;;;14.00;99.90;;;;;;5043549;28;20436;-81
2023/06/05 04:06:34;;;;;;;7.80;4.70;;;14.00;99.90;;;;;;5043275;28;20224;-81
2023/06/05 04:09:00;;;;;;;6.93;4.10;;;14.10;99.90;;;;;;5040692;28;20449;-81
2023/06/05 04:11:30;;;;;;;6.00;4.93;;;14.10;99.90;;;;;;5042642;28;20516;-81
2023/06/05 04:13:55;;;;;;;8.27;4.60;;;14.10;99.90;;;;;;5028420;28;20286;-81
2023/06/05 04:16:21;;;;;;;9.63;4.77;;;14.20;99.90;;;;;;5043116;28;20470;-81
2023/06/05 04:18:46;;;;;;;10.30;5.20;;;14.20;99.90;;;;;;5039625;28;20186;-79
2023/06/05 04:21:12;;;;;;;9.47;5.57;;;14.30;99.90;;;;;;5034066;28;20193;-80
2023/06/05 04:23:37;;;;;;;8.87;4.70;;;14.30;99.90;;;;;;5042452;28;20187;-80
2023/06/05 04:26:03;;;;;;;10.07;4.53;;;14.40;99.90;;;;;;5037173;28;20226;-80
2023/06/05 04:28:29;;;;;;;5.53;4.27;;;14.40;99.90;;;;;;5009971;28;20202;-80
2023/06/05 04:30:55;;;;;;;7.67;4.40;;;14.50;99.90;;;;;;5033824;28;20187;-81
2023/06/05 04:33:21;;;;;;;11.67;4.80;;;14.60;99.90;;;;;;5043191;28;20467;-80
2023/06/05 04:35:47;;;;;;;11.93;5.40;;;14.60;99.90;;;;;;5046174;28;20438;-80
2023/06/05 04:38:12;;;;;;;12.47;4.60;;;14.70;99.90;;;;;;5040734;28;20254;-81
2023/06/05 04:40:38;;;;;;;11.93;5.07;;;14.80;99.90;;;;;;5047080;28;20200;-82
2023/06/05 04:43:03;;;;;;;7.17;4.70;;;14.80;99.90;;;;;;5035016;28;20191;-82
2023/06/05 04:45:29;;;;;;;8.23;4.80;;;14.90;99.90;;;;;;5039895;28;20181;-80
2023/06/05 04:47:55;;;;;;;8.43;4.80;;;14.90;99.90;;;;;;5045572;28;20443;-78
2023/06/05 04:50:26;;;;;;;8.80;4.80;;;15.00;99.90;;;;;;5045476;28;20187;-82
2023/06/05 04:52:53;;;;;;;9.60;5.20;;;15.10;99.90;;;;;;5043058;28;20188;-80
2023/06/05 04:55:19;;;;;;;8.07;4.73;;;15.20;99.90;;;;;;5027402;28;20799;-80
2023/06/05 04:57:45;;;;;;;11.03;7.10;;;15.30;99.90;;;;;;5040407;28;20450;-80
2023/06/05 05:00:11;;;;;;;7.60;4.80;;;15.40;99.90;;;;;;5043132;28;20483;-81
2023/06/05 05:02:37;;;;;;;8.73;5.17;;;15.50;99.90;;;;;;5043263;28;20426;-79
2023/06/05 05:05:04;;;;;;;9.03;5.40;;;15.60;99.90;;;;;;5043727;28;20449;-81
2023/06/05 05:07:29;;;;;;;15.33;5.70;;;15.70;99.90;;;;;;5042542;28;20405;-80
2023/06/05 05:09:55;;;;;;;11.73;5.60;;;15.80;99.90;;;;;;5044290;28;20440;-80
2023/06/05 05:12:21;;;;;;;6.57;4.60;;;15.80;99.90;;;;;;5046008;28;20224;-81
2023/06/05 05:14:46;;;;;;;19.70;5.77;;;15.90;99.90;;;;;;5027161;28;20500;-79
2023/06/05 05:17:14;;;;;;;8.00;5.30;;;16.00;99.90;;;;;;5019946;28;20204;-78
2023/06/05 05:19:40;;;;;;;15.13;6.43;;;16.10;99.90;;;;;;5040104;28;20189;-80
2023/06/05 05:22:06;;;;;;;11.10;5.80;;;16.20;99.90;;;;;;5044190;28;20516;-81
2023/06/05 05:24:32;;;;;;;7.00;4.77;;;16.20;99.90;;;;;;5043739;28;20551;-78
2023/06/05 05:26:57;;;;;;;8.13;6.20;;;16.30;99.90;;;;;;5045177;28;21399;-79
2023/06/05 05:29:23;;;;;;;9.37;5.53;;;16.40;99.90;;;;;;5045118;28;20712;-81
2023/06/05 05:31:48;;;;;;;9.40;5.70;;;16.50;99.90;;;;;;5030860;28;20196;-80
2023/06/05 05:34:14;;;;;;;11.27;5.23;;;16.50;99.90;;;;;;5041080;28;20212;-80
2023/06/05 05:36:39;;;;;;;11.30;5.03;;;16.60;99.90;;;;;;5027613;28;20300;-79
2023/06/05 05:39:07;;;;;;;7.73;5.40;;;16.70;99.90;;;;;;5029193;28;20217;-81
2023/06/05 05:41:32;;;;;;;11.70;5.23;;;16.80;99.90;;;;;;5044542;28;20651;-81
2023/06/05 05:43:58;;;;;;;8.63;6.30;;;16.90;99.90;;;;;;5044558;28;20447;-80
2023/06/05 05:46:23;;;;;;;10.27;6.60;;;17.00;99.90;;;;;;5043730;28;20228;-80
2023/06/05 05:48:49;;;;;;;8.80;6.20;;;17.10;99.90;;;;;;5043818;28;20217;-80
2023/06/05 05:51:14;;;;;;;8.87;5.43;;;17.20;99.90;;;;;;5035788;28;20255;-78
2023/06/05 05:53:40;;;;;;;9.73;5.60;;;17.30;99.90;;;;;;5040189;28;20365;-78
2023/06/05 05:56:05;;;;;;;9.77;5.97;;;17.40;99.90;;;;;;5037791;28;20206;-79
2023/06/05 05:58:31;;;;;;;12.43;7.17;;;17.50;99.90;;;;;;5032148;28;20158;-82
2023/06/05 06:00:59;;;;;;;8.97;5.47;;;17.70;99.90;;;;;;5045184;28;20190;-82
2023/06/05 06:03:26;;;;;;;7.47;5.93;;;18.00;99.90;;;;;;5045951;28;20433;-81
2023/06/05 06:05:52;;;;;;;7.70;4.57;;;18.40;99.90;;;;;;5030692;28;20912;-82
2023/06/05 06:08:18;;;;;;;10.07;7.23;;;19.40;99.90;;;;;;5024237;28;20487;-81
2023/06/05 06:10:43;;;;;;;9.60;5.43;;;21.60;99.90;;;;;;5044186;28;20437;-79
2023/06/05 06:13:18;;;;;;;12.30;5.17;;;25.10;99.90;;;;;;5040132;28;20205;-82
2023/06/05 06:15:49;;;;;;;6.53;4.23;;;28.30;99.90;;;;;;5046734;28;20209;-83
2023/06/05 06:18:22;;;;;;;8.37;5.77;;;31.00;99.90;;;;;;5044206;28;20471;-84
2023/06/05 06:20:59;;;;;;;10.90;5.50;;;32.90;99.90;;;;;;5028702;28;20521;-83
2023/06/05 06:24:35;;;;;;;;;;;;;;;;;;;;;
2023/06/05 06:26:52;;;;;;;8.07;4.47;;;36.90;94.50;;;;;;5038570;28;20488;-79
2023/06/05 06:29:35;;;;;;;;;;;;;;;;;;;;;
2023/06/05 06:32:04;;;;;;;7.53;4.73;;;40.00;71.90;;;;;;5044720;28;20516;-79
2023/06/05 06:34:30;;;;;;;10.43;4.73;;;40.90;58.70;;;;;;5029525;28;20445;-83
2023/06/05 06:36:55;;;;;;;4.83;3.60;;;41.80;51.40;;;;;;5030283;28;20472;-80
2023/06/05 06:39:25;;;;;;;6.13;4.03;;;42.80;44.50;;;;;;5034842;28;20186;-81
2023/06/05 06:41:53;;;;;;;9.07;4.30;;;43.90;37.90;;;;;;5041282;28;20208;-81
2023/06/05 06:44:19;;;;;;;5.90;3.87;;;44.50;30.50;;;;;;5038142;28;20487;-82
2023/06/05 06:46:44;;;;;;;6.40;3.63;;;44.90;25.20;;;;;;5044912;28;20465;-80
2023/06/05 06:49:10;;;;;;;7.13;3.90;;;45.10;20.30;;;;;;5027581;28;20270;-83
2023/06/05 06:51:38;;;;;;;9.00;4.23;;;46.00;26.70;;;;;;5048012;28;20178;-82
2023/06/05 06:54:04;;;;;;;7.93;3.23;;;47.00;24.00;;;;;;5028612;28;20194;-81
2023/06/05 06:56:29;;;;;;;5.63;3.60;;;48.20;11.60;;;;;;5029244;28;20463;-83
2023/06/05 06:58:56;;;;;;;13.07;3.97;;;49.70;9.50;;;;;;5031585;28;20212;-81
2023/06/05 07:01:23;;;;;;;5.67;3.87;;;50.50;6.60;;;;;;5026114;28;20190;-82
2023/06/05 07:03:49;;;;;;;6.27;3.67;;;50.90;2.30;;;;;;5029854;28;20483;-82
2023/06/05 07:06:15;;;;;;;6.47;4.07;;;51.80;3.10;;;;;;5046170;28;20181;-82
2023/06/05 07:08:40;;;;;;;7.80;3.22;;;52.90;1.00;;;;;;5025447;28;20555;-81
2023/06/05 07:11:06;;;;;;;4.47;3.33;;;53.60;6.20;;;;;;5028869;28;20256;-80
2023/06/05 07:13:32;;;;;;;8.20;3.50;;;54.20;3.50;;;;;;5025715;28;20188;-81
2023/06/05 07:15:57;;;;;;;6.03;3.28;;;54.70;1.00;;;;;;5029812;28;20178;-81
2023/06/05 07:18:23;;;;;;;5.38;3.90;;;55.40;1.00;;;;;;5022809;28;20548;-82
2023/06/05 07:20:48;;;;;;;5.95;3.55;;;56.10;1.00;;;;;;5044718;28;20182;-81
2023/06/05 07:23:17;;;;;;;7.03;3.50;;;56.80;1.00;;;;;;5035929;28;20173;-84
2023/06/05 07:25:46;;;;;;;5.18;3.35;;;57.20;1.00;;;;;;5034969;28;20200;-83
2023/06/05 07:28:12;;;;;;;8.43;3.47;;;57.60;1.00;;;;;;5042522;28;20225;-85
2023/06/05 07:30:38;;;;;;;5.07;3.42;;;57.90;1.00;;;;;;5047003;28;20683;-81
2023/06/05 07:33:04;;;;;;;5.47;3.40;;;58.10;1.00;;;;;;5045000;28;20184;-83
2023/06/05 07:35:32;;;;;;;5.45;3.60;;;58.30;1.00;;;;;;5035182;28;20173;-81
2023/06/05 07:37:58;;;;;;;4.80;3.22;;;58.10;1.00;;;;;;5044140;28;20201;-84
2023/06/05 07:40:24;;;;;;;6.72;3.45;;;58.00;1.00;;;;;;5046253;28;20260;-85
2023/06/05 07:42:49;;;;;;;4.20;3.10;;;58.00;1.00;;;;;;5032149;28;20166;-81
2023/06/05 07:45:15;;;;;;;4.65;3.30;;;58.00;1.00;;;;;;5031218;28;20205;-83
2023/06/05 07:47:41;;;;;;;4.13;3.40;;;58.10;1.00;;;;;;5033026;28;20193;-82
2023/06/05 07:50:07;;;;;;;3.90;3.22;;;58.00;1.00;;;;;;5030271;28;20209;-83
2023/06/05 07:52:33;;;;;;;5.00;3.83;;;57.80;1.00;;;;;;5027628;28;20174;-83
2023/06/05 07:54:58;;;;;;;4.18;3.30;;;57.20;1.00;;;;;;5029294;28;20185;-84
2023/06/05 07:57:24;;;;;;;6.95;3.33;;;56.90;1.00;;;;;;5027587;28;20197;-84
2023/06/05 07:59:51;;;;;;;5.15;3.65;;;57.20;1.00;;;;;;5035464;28;20245;-83
2023/06/05 08:02:20;;;;;;;5.43;3.38;;;57.10;1.00;;;;;;5031336;28;20178;-83
2023/06/05 08:04:46;;;;;;;6.40;3.85;;;57.30;1.00;;;;;;5021581;28;20208;-81
2023/06/05 08:07:12;;;;;;;4.15;3.60;;;57.30;1.00;;;;;;5047253;28;20186;-83
2023/06/05 08:09:38;;;;;;;5.38;3.33;;;57.50;1.00;;;;;;5026495;28;20180;-82
2023/06/05 08:12:04;;;;;;;6.72;3.70;;;57.10;1.00;;;;;;5020794;28;20197;-83
2023/06/05 08:14:30;;;;;;;4.40;3.38;;;56.40;1.00;;;;;;5043334;28;20181;-83
2023/06/05 08:16:55;;;;;;;5.88;4.05;;;55.80;1.00;;;;;;5037395;28;20208;-83
2023/06/05 08:19:21;;;;;;;6.67;4.00;;;55.20;1.00;;;;;;5042836;28;20186;-82
2023/06/05 08:21:51;;;;;;;7.20;4.37;;;54.50;1.00;;;;;;5040720;28;20709;-82
2023/06/05 08:24:17;;;;;;;5.00;4.20;;;54.20;1.00;;;;;;5027261;28;20286;-82
2023/06/05 08:26:42;;;;;;;8.00;3.90;;;54.00;1.00;;;;;;5020809;28;20197;-80
2023/06/05 08:29:08;;;;;;;9.27;3.47;;;53.80;1.00;;;;;;5023789;28;20185;-82
2023/06/05 08:31:36;;;;;;;7.20;4.00;;;53.50;1.00;;;;;;5023208;28;20173;-82
2023/06/05 08:34:02;;;;;;;4.37;3.77;;;53.30;1.00;;;;;;5019942;28;20258;-80
2023/06/05 08:36:28;;;;;;;7.90;3.97;;;53.10;1.00;;;;;;5048253;28;20204;-81
2023/06/05 08:38:53;;;;;;;4.93;3.70;;;53.10;1.00;;;;;;5044181;28;20451;-81
2023/06/05 08:41:19;;;;;;;8.30;4.73;;;53.10;1.00;;;;;;5030048;28;20428;-81
2023/06/05 08:43:45;;;;;;;9.40;3.93;;;53.20;1.00;;;;;;5027972;28;20240;-79
2023/06/05 08:46:12;;;;;;;5.13;3.50;;;53.20;1.00;;;;;;5028437;28;20200;-81
2023/06/05 08:48:45;;;;;;;4.60;3.73;;;53.20;1.00;;;;;;5036786;28;20185;-81
2023/06/05 08:51:12;;;;;;;6.50;3.40;;;53.10;1.00;;;;;;5026813;28;20328;-81
2023/06/05 08:53:40;;;;;;;5.53;3.60;;;53.20;1.00;;;;;;5050799;28;20178;-80
2023/06/05 08:59:29;;;;;;;;;;;;;;;;;;;;;
2023/06/05 09:02:49;;;;;;;;;;;;;;;;;;;;;
2023/06/05 09:05:38;;;;;;;6.60;3.50;;;52.80;1.00;;;;;;4911520;29;20557;-81
2023/06/05 09:15:34;;;;;;;;;;;;;;;;;;;;;
2023/06/05 09:25:35;;;;;;;6.10;3.83;;;52.30;1.00;;;;;;4988179;28;20544;-81
2023/06/05 09:33:35;;;;;;;;;;;;;;;;;;;;;
2023/06/05 09:43:01;;;;;;;4.80;3.20;;;51.10;1.00;;;;;;4996452;28;20453;-81
2023/06/05 09:57:21;;;;;;;;;;;;;;;;;;;;;
2023/06/05 10:00:25;;;;;;;;;;;;;;;;;;;;;
2023/06/05 10:23:01;;;;;;;4.60;2.93;;;49.10;1.00;;;;;;4993378;28;20461;-80
2023/06/05 10:26:06;;;;;;;4.67;2.80;;;48.80;1.00;;;;;;4994810;28;20560;-81
2023/06/05 10:29:43;;;;;;;;;;;;;;;;;;;;;
2023/06/05 10:33:27;;;;;;;;;;;;;;;;;;;;;
2023/06/05 10:36:55;;;;;;;;;;;;;;;;;;;;;
2023/06/05 10:43:23;;;;;;;;;;;;;;;;;;;;;
2023/06/05 10:46:54;;;;;;;;;;;;;;;;;;;;;
2023/06/05 10:53:39;;;;;;;;;;;;;;;;;;;;;
2023/06/05 11:00:35;;;;;;;6.63;2.03;;;46.70;1.00;;;;;;5002417;28;20414;-79
2023/06/05 11:07:50;;;;;;;;;;;;;;;;;;;;;
2023/06/05 11:17:53;;;;;;;7.37;2.60;;;46.00;1.00;;;;;;4962401;28;20519;-81
2023/06/05 11:21:24;;;;;;;3.60;2.57;;;46.00;1.00;;;;;;4998114;28;20419;-82
2023/06/05 11:27:53;;;;;;;;;;;;;;;;;;;;;
2023/06/05 11:30:42;;;;;;;4.60;3.17;;;44.90;1.00;;;;;;5002104;28;20527;-82
2023/06/05 11:33:40;;;;;;;7.50;2.53;;;44.70;1.00;;;;;;4995337;28;20476;-82
2023/06/05 11:43:36;;;;;;;7.37;2.40;;;44.20;1.00;;;;;;4981867;28;20458;-80
2023/06/05 11:46:37;;;;;;;4.47;2.57;;;44.20;1.00;;;;;;4988187;28;20442;-82
2023/06/05 11:49:22;;;;;;;10.40;2.73;;;44.10;1.00;;;;;;5001661;28;20442;-81
2023/06/05 11:52:57;;;;;;;4.90;2.53;;;44.00;1.00;;;;;;5004050;28;20448;-82
2023/06/05 12:02:06;;;;;;;6.00;3.00;;;43.70;1.00;;;;;;4996353;28;20443;-81
2023/06/05 12:05:06;;;;;;;6.50;2.60;;;42.90;1.00;;;;;;5013439;28;20493;-81
2023/06/05 12:07:48;;;;;;;14.30;3.30;;;42.70;1.00;;;;;;5004565;28;20915;-82
2023/06/05 12:10:44;;;;;;;7.50;2.90;;;42.70;1.00;;;;;;5003268;28;21026;-83
2023/06/05 12:13:43;;;;;;;;;;;;;;;;;;;;;
2023/06/05 12:16:55;;;;;;;5.17;2.90;;;42.70;1.00;;;;;;5003055;28;20518;-78
2023/06/05 12:20:04;;;;;;;;;;;;;;;;;;;;;
2023/06/05 12:22:56;;;;;;;;;;;;;;;;;;;;;
2023/06/05 12:25:53;;;;;;;;;;;;;;;;;;;;;
2023/06/05 12:28:40;;;;;;;5.27;2.83;;;41.00;1.00;;;;;;5004595;28;21023;-82
2023/06/05 12:31:38;;;;;;;;;;;;;;;;;;;;;
2023/06/05 12:34:46;;;;;;;4.53;2.37;;;41.00;1.00;;;;;;5002103;28;20538;-79
2023/06/05 12:38:01;;;;;;;4.30;2.40;;;41.00;1.00;;;;;;4999452;28;20522;-82
2023/06/05 12:40:58;;;;;;;4.60;2.53;;;40.60;1.00;;;;;;4999814;28;20453;-81
2023/06/05 12:43:50;;;;;;;;;;;;;;;;;;;;;
2023/06/05 12:49:24;;;;;;;6.20;2.60;;;39.90;1.00;;;;;;4994709;28;20419;-82
2023/06/05 12:52:29;;;;;;;;;;;;;;;;;;;;;
2023/06/05 12:55:07;;;;;;;3.80;2.40;;;39.40;1.00;;;;;;5003110;28;21015;-79
2023/06/05 12:57:57;;;;;;;5.67;2.90;;;39.20;1.00;;;;;;5011187;28;20538;-79
2023/06/05 13:00:29;;;;;;;3.73;2.30;;;38.80;1.00;;;;;;5019291;28;20419;-81
2023/06/05 13:03:21;;;;;;;7.10;2.50;;;38.40;1.00;;;;;;5005250;28;20438;-82
2023/06/05 13:05:53;;;;;;;3.87;2.93;;;38.20;1.00;;;;;;5022750;28;20449;-81
2023/06/05 13:08:48;;;;;;;4.47;3.17;;;38.10;1.00;;;;;;5004624;28;20458;-81
2023/06/05 13:11:18;;;;;;;2.63;2.20;;;37.80;1.00;;;;;;5019406;28;20445;-80
2023/06/05 13:13:54;;;;;;;4.80;2.73;;;37.60;1.00;;;;;;5007399;28;20799;-82
2023/06/05 13:16:25;;;;;;;4.70;2.40;;;37.70;1.00;;;;;;5006728;28;20419;-81
2023/06/05 13:19:08;;;;;;;;;;;;;;;;;;;;;
2023/06/05 13:21:52;;;;;;;6.83;3.20;;;37.40;1.00;;;;;;5007048;28;20499;-81
2023/06/05 13:24:18;;;;;;;5.73;3.10;;;37.50;1.00;;;;;;5006053;28;20470;-81
2023/06/05 13:26:50;;;;;;;6.20;3.03;;;37.40;1.00;;;;;;5003913;28;20505;-81
2023/06/05 13:29:18;;;;;;;4.00;3.00;;;36.80;1.00;;;;;;5007049;28;20426;-81
2023/06/05 13:31:51;;;;;;;6.33;2.53;;;36.40;1.00;;;;;;5001062;28;20412;-81
2023/06/05 13:34:17;;;;;;;6.13;2.50;;;36.30;1.00;;;;;;4993143;28;20795;-81
2023/06/05 13:37:08;;;;;;;7.40;2.50;;;36.20;1.00;;;;;;4985475;28;20449;-81
2023/06/05 13:39:36;;;;;;;5.50;2.57;;;36.40;1.00;;;;;;4987347;28;20841;-81
2023/06/05 13:42:02;;;;;;;4.20;2.60;;;36.40;1.00;;;;;;4995695;28;20434;-81
2023/06/05 13:44:30;;;;;;;2.80;2.13;;;36.50;1.00;;;;;;5002727;28;20485;-80
2023/06/05 13:47:01;;;;;;;4.77;2.63;;;36.50;1.00;;;;;;4999732;28;20439;-79
2023/06/05 13:49:27;;;;;;;4.60;2.87;;;36.40;1.00;;;;;;5004835;28;20877;-81
2023/06/05 13:51:55;;;;;;;4.80;2.83;;;36.20;1.00;;;;;;5007190;28;20422;-81
2023/06/05 13:54:23;;;;;;;5.70;2.90;;;35.90;1.00;;;;;;5006015;28;20207;-83
2023/06/05 13:56:51;;;;;;;3.43;2.53;;;35.50;1.00;;;;;;5005989;28;20442;-80
2023/06/05 13:59:16;;;;;;;5.03;2.50;;;35.10;1.00;;;;;;5003435;28;20458;-81
2023/06/05 14:01:42;;;;;;;6.40;2.87;;;34.80;1.00;;;;;;4998742;28;20984;-81
2023/06/05 14:04:07;;;;;;;6.27;3.40;;;34.60;1.00;;;;;;5000328;28;20234;-80
2023/06/05 14:06:37;;;;;;;7.60;2.93;;;34.30;1.00;;;;;;4990127;28;20201;-81
2023/06/05 14:09:02;;;;;;;3.23;2.70;;;34.00;1.00;;;;;;4985043;28;20180;-81
2023/06/05 14:11:28;;;;;;;2.70;2.30;;;33.70;1.00;;;;;;4983785;28;20466;-81
2023/06/05 14:13:53;;;;;;;3.47;2.57;;;33.50;1.00;;;;;;4985205;28;20184;-81
2023/06/05 14:16:20;;;;;;;3.20;2.50;;;33.40;1.00;;;;;;5010454;28;20192;-79
2023/06/05 14:18:45;;;;;;;4.27;3.10;;;33.20;1.00;;;;;;4998479;28;20194;-80
2023/06/05 14:21:11;;;;;;;3.80;3.00;;;33.00;1.00;;;;;;5001641;28;20435;-80
2023/06/05 14:23:36;;;;;;;4.93;2.80;;;32.40;1.00;;;;;;5000371;28;20444;-80
2023/06/05 14:26:02;;;;;;;6.27;2.60;;;32.00;1.00;;;;;;5000514;28;20211;-78
2023/06/05 14:28:28;;;;;;;4.90;3.20;;;31.80;1.00;;;;;;4996028;28;20219;-80
2023/06/05 14:30:54;;;;;;;2.83;2.37;;;31.70;1.00;;;;;;4993146;28;20891;-80
2023/06/05 14:33:20;;;;;;;3.40;2.07;;;31.70;1.00;;;;;;4995541;28;20484;-78
2023/06/05 14:35:45;;;;;;;3.60;2.97;;;31.80;1.00;;;;;;5012319;28;20501;-79
2023/06/05 14:38:14;;;;;;;3.93;2.67;;;31.90;1.00;;;;;;4999677;28;20195;-78
2023/06/05 14:40:40;;;;;;;4.27;2.50;;;31.90;1.00;;;;;;5000354;28;20215;-79
2023/06/05 14:43:05;;;;;;;6.77;3.10;;;31.80;1.00;;;;;;5002002;28;20442;-79
2023/06/05 14:45:31;;;;;;;3.03;2.73;;;31.80;1.00;;;;;;5001418;28;20470;-80
2023/06/05 14:47:57;;;;;;;8.67;2.87;;;31.80;1.00;;;;;;5004203;28;21936;-80
2023/06/05 14:50:22;;;;;;;3.10;2.20;;;31.80;1.00;;;;;;5003585;28;20195;-80
2023/06/05 14:52:48;;;;;;;5.43;2.60;;;31.90;1.00;;;;;;5000871;28;20195;-80
2023/06/05 14:55:13;;;;;;;5.13;2.77;;;32.00;1.00;;;;;;4997539;28;20224;-79
2023/06/05 14:57:39;;;;;;;5.80;3.30;;;32.10;1.00;;;;;;5015188;28;20215;-78
2023/06/05 15:00:05;;;;;;;3.43;2.80;;;32.10;1.00;;;;;;5002400;28;20646;-80
2023/06/05 15:02:31;;;;;;;5.43;3.27;;;32.00;1.00;;;;;;4996789;28;20315;-78
2023/06/05 15:05:00;;;;;;;9.10;7.70;;;31.90;1.00;;;;;;5002745;28;20472;-79
2023/06/05 15:07:36;;;;;;;22.83;15.97;;;31.90;1.00;;;;;;4995258;28;20477;-80
2023/06/05 15:10:01;;;;;;;7.27;5.43;;;31.90;1.00;;;;;;4999794;28;20438;-80
2023/06/05 15:12:27;;;;;;;5.80;3.70;;;31.90;1.00;;;;;;4999524;28;20457;-80
2023/06/05 15:14:52;;;;;;;3.80;2.90;;;31.80;1.00;;;;;;4994805;28;20259;-80
2023/06/05 15:17:18;;;;;;;6.73;4.90;;;31.80;1.00;;;;;;4997692;28;20293;-81
2023/06/05 15:19:45;;;;;;;4.27;3.87;;;31.70;1.00;;;;;;4998394;28;20302;-80
2023/06/05 15:22:10;;;;;;;9.13;2.90;;;31.80;1.00;;;;;;4994291;28;20477;-81
2023/06/05 15:24:36;;;;;;;6.70;3.10;;;31.80;1.00;;;;;;5008836;28;20467;-81
2023/06/05 15:27:02;;;;;;;4.73;3.00;;;31.70;1.00;;;;;;4993434;28;20211;-81